CheckWX is a tool to help pilots better visualize weather data.  It is not intended as a substitute for an official pre-flight weather briefing.

18:02:23 UTC

KOMK METAR
Omak Airport
Omak, Washington, USA
Current

9 mins ago

KOMK 241753Z AUTO 01012KT 10SM CLR 16/M02 A3019 RMK AO2 SLP224 T01611017 10167 20022 51003
Observed
Apr-24 @ 17:53 UTC
Wind
  • 010° at 12 KTS
Visibility
10 SM
Flight Rules
VFR
Cloud Levels
  • Clear skies
Temperature
16°C / 61°F
Dewpoint
-2°C / 28°F
Humidity
29%
Altimeter
30.19" Hg
Pressure
1022.32 hPa
Previous

1 hour ago

KOMK 241653Z AUTO 36006G15KT 10SM CLR 14/M02 A3019 RMK AO2 SLP223 T01441022
Observed
Apr-24 @ 16:53 UTC
Wind
  • 360° at 6 KTS
  • Gusting to 15 KTS
Visibility
10 SM
Flight Rules
VFR
Cloud Levels
  • Clear skies
Temperature
14°C / 57°F
Dewpoint
-2°C / 28°F
Humidity
33%
Altimeter
30.19" Hg
Pressure
1022.32 hPa
Previous

2 hours ago

KOMK 241553Z AUTO 03006KT 10SM CLR 13/M01 A3018 RMK AO2 SLP222 T01281006
Observed
Apr-24 @ 15:53 UTC
Wind
  • 030° at 6 KTS
Visibility
10 SM
Flight Rules
VFR
Cloud Levels
  • Clear skies
Temperature
13°C / 55°F
Dewpoint
-1°C / 30°F
Humidity
38%
Altimeter
30.18" Hg
Pressure
1022.02 hPa